sensor_id;sensor_type;location;lat;lon;timestamp;P1;durP1;ratioP1;P2;durP2;ratioP2
7263;SDS011;3673;52.480;13.348;2023-07-24T00:01:32;4.80;;;2.50;;
7263;SDS011;3673;52.480;13.348;2023-07-24T00:03:59;6.65;;;2.83;;
7263;SDS011;3673;52.480;13.348;2023-07-24T00:06:26;3.40;;;2.70;;
7263;SDS011;3673;52.480;13.348;2023-07-24T00:08:52;6.32;;;3.20;;
7263;SDS011;3673;52.480;13.348;2023-07-24T00:11:19;4.05;;;2.78;;
7263;SDS011;3673;52.480;13.348;2023-07-24T00:13:46;3.97;;;2.92;;
7263;SDS011;3673;52.480;13.348;2023-07-24T00:16:12;4.00;;;2.92;;
7263;SDS011;3673;52.480;13.348;2023-07-24T00:18:41;4.30;;;3.13;;
7263;SDS011;3673;52.480;13.348;2023-07-24T00:21:07;5.03;;;3.17;;
7263;SDS011;3673;52.480;13.348;2023-07-24T00:23:35;7.32;;;2.85;;
7263;SDS011;3673;52.480;13.348;2023-07-24T00:26:02;4.78;;;3.50;;
7263;SDS011;3673;52.480;13.348;2023-07-24T00:28:29;5.85;;;3.58;;
7263;SDS011;3673;52.480;13.348;2023-07-24T00:30:55;12.98;;;10.18;;
7263;SDS011;3673;52.480;13.348;2023-07-24T00:33:22;4.63;;;3.58;;
7263;SDS011;3673;52.480;13.348;2023-07-24T00:35:50;7.88;;;3.30;;
7263;SDS011;3673;52.480;13.348;2023-07-24T00:38:22;4.20;;;3.35;;
7263;SDS011;3673;52.480;13.348;2023-07-24T00:40:49;6.85;;;3.53;;
7263;SDS011;3673;52.480;13.348;2023-07-24T00:43:16;6.10;;;3.28;;
7263;SDS011;3673;52.480;13.348;2023-07-24T00:45:43;4.97;;;3.28;;
7263;SDS011;3673;52.480;13.348;2023-07-24T00:48:12;4.32;;;3.03;;
7263;SDS011;3673;52.480;13.348;2023-07-24T00:50:39;5.45;;;3.40;;
7263;SDS011;3673;52.480;13.348;2023-07-24T00:53:08;4.68;;;3.40;;
7263;SDS011;3673;52.480;13.348;2023-07-24T00:55:35;4.07;;;2.92;;
7263;SDS011;3673;52.480;13.348;2023-07-24T00:58:01;4.55;;;3.10;;
7263;SDS011;3673;52.480;13.348;2023-07-24T01:00:29;4.43;;;3.38;;
7263;SDS011;3673;52.480;13.348;2023-07-24T01:02:56;3.88;;;3.00;;
7263;SDS011;3673;52.480;13.348;2023-07-24T01:05:26;5.88;;;3.05;;
7263;SDS011;3673;52.480;13.348;2023-07-24T01:07:53;4.55;;;3.25;;
7263;SDS011;3673;52.480;13.348;2023-07-24T01:10:21;3.80;;;2.80;;
7263;SDS011;3673;52.480;13.348;2023-07-24T01:12:51;4.53;;;3.10;;
7263;SDS011;3673;52.480;13.348;2023-07-24T01:15:26;4.30;;;3.25;;
7263;SDS011;3673;52.480;13.348;2023-07-24T01:17:59;6.05;;;3.40;;
7263;SDS011;3673;52.480;13.348;2023-07-24T01:20:29;3.97;;;3.03;;
7263;SDS011;3673;52.480;13.348;2023-07-24T01:23:04;5.65;;;3.00;;
7263;SDS011;3673;52.480;13.348;2023-07-24T01:25:52;4.35;;;2.83;;
7263;SDS011;3673;52.480;13.348;2023-07-24T01:28:25;5.10;;;3.70;;
7263;SDS011;3673;52.480;13.348;2023-07-24T01:30:52;4.68;;;2.97;;
7263;SDS011;3673;52.480;13.348;2023-07-24T01:33:20;5.18;;;3.20;;
7263;SDS011;3673;52.480;13.348;2023-07-24T01:35:48;5.30;;;3.20;;
7263;SDS011;3673;52.480;13.348;2023-07-24T01:38:18;5.20;;;2.83;;
7263;SDS011;3673;52.480;13.348;2023-07-24T01:40:45;4.25;;;3.15;;
7263;SDS011;3673;52.480;13.348;2023-07-24T01:43:14;4.03;;;2.72;;
7263;SDS011;3673;52.480;13.348;2023-07-24T01:45:41;3.17;;;2.60;;
7263;SDS011;3673;52.480;13.348;2023-07-24T01:48:08;3.17;;;2.55;;
7263;SDS011;3673;52.480;13.348;2023-07-24T01:50:35;5.07;;;2.42;;
7263;SDS011;3673;52.480;13.348;2023-07-24T01:53:02;3.22;;;2.72;;
7263;SDS011;3673;52.480;13.348;2023-07-24T01:55:29;3.13;;;2.40;;
7263;SDS011;3673;52.480;13.348;2023-07-24T01:57:55;6.15;;;2.92;;
7263;SDS011;3673;52.480;13.348;2023-07-24T02:00:23;4.88;;;3.10;;
7263;SDS011;3673;52.480;13.348;2023-07-24T02:02:50;5.97;;;3.10;;
7263;SDS011;3673;52.480;13.348;2023-07-24T02:05:17;3.88;;;2.92;;
7263;SDS011;3673;52.480;13.348;2023-07-24T02:07:44;4.22;;;2.97;;
7263;SDS011;3673;52.480;13.348;2023-07-24T02:10:10;5.25;;;2.40;;
7263;SDS011;3673;52.480;13.348;2023-07-24T02:12:37;3.50;;;2.85;;
7263;SDS011;3673;52.480;13.348;2023-07-24T02:15:05;6.43;;;3.17;;
7263;SDS011;3673;52.480;13.348;2023-07-24T02:17:34;4.10;;;3.08;;
7263;SDS011;3673;52.480;13.348;2023-07-24T02:20:01;3.58;;;2.80;;
7263;SDS011;3673;52.480;13.348;2023-07-24T02:22:27;4.70;;;3.17;;
7263;SDS011;3673;52.480;13.348;2023-07-24T02:24:54;5.65;;;2.97;;
7263;SDS011;3673;52.480;13.348;2023-07-24T02:27:25;8.40;;;3.42;;
7263;SDS011;3673;52.480;13.348;2023-07-24T02:29:53;2.97;;;2.67;;
7263;SDS011;3673;52.480;13.348;2023-07-24T02:32:20;4.10;;;2.67;;
7263;SDS011;3673;52.480;13.348;2023-07-24T02:34:49;4.57;;;2.63;;
7263;SDS011;3673;52.480;13.348;2023-07-24T02:37:16;4.38;;;2.95;;
7263;SDS011;3673;52.480;13.348;2023-07-24T02:39:44;4.93;;;3.38;;
7263;SDS011;3673;52.480;13.348;2023-07-24T02:42:11;5.10;;;2.75;;
7263;SDS011;3673;52.480;13.348;2023-07-24T02:44:38;3.65;;;2.75;;
7263;SDS011;3673;52.480;13.348;2023-07-24T02:47:05;3.80;;;2.85;;
7263;SDS011;3673;52.480;13.348;2023-07-24T02:49:32;3.60;;;2.95;;
7263;SDS011;3673;52.480;13.348;2023-07-24T02:52:00;4.45;;;2.95;;
7263;SDS011;3673;52.480;13.348;2023-07-24T02:54:27;4.93;;;2.92;;
7263;SDS011;3673;52.480;13.348;2023-07-24T02:56:54;3.35;;;2.53;;
7263;SDS011;3673;52.480;13.348;2023-07-24T02:59:21;3.95;;;2.60;;
7263;SDS011;3673;52.480;13.348;2023-07-24T03:01:47;3.38;;;2.35;;
7263;SDS011;3673;52.480;13.348;2023-07-24T03:04:14;6.43;;;3.15;;
7263;SDS011;3673;52.480;13.348;2023-07-24T03:06:41;3.95;;;2.53;;
7263;SDS011;3673;52.480;13.348;2023-07-24T03:09:10;2.53;;;2.28;;
7263;SDS011;3673;52.480;13.348;2023-07-24T03:11:36;2.80;;;2.28;;
7263;SDS011;3673;52.480;13.348;2023-07-24T03:14:03;2.67;;;2.35;;
7263;SDS011;3673;52.480;13.348;2023-07-24T03:16:30;5.15;;;2.92;;
7263;SDS011;3673;52.480;13.348;2023-07-24T03:18:57;5.57;;;2.83;;
7263;SDS011;3673;52.480;13.348;2023-07-24T03:21:24;3.58;;;2.00;;
7263;SDS011;3673;52.480;13.348;2023-07-24T03:23:50;2.95;;;2.13;;
7263;SDS011;3673;52.480;13.348;2023-07-24T03:26:18;3.55;;;2.50;;
7263;SDS011;3673;52.480;13.348;2023-07-24T03:28:45;5.50;;;2.13;;
7263;SDS011;3673;52.480;13.348;2023-07-24T03:31:12;3.10;;;2.63;;
7263;SDS011;3673;52.480;13.348;2023-07-24T03:33:39;4.65;;;2.25;;
7263;SDS011;3673;52.480;13.348;2023-07-24T03:36:05;4.80;;;2.20;;
7263;SDS011;3673;52.480;13.348;2023-07-24T03:38:32;2.40;;;2.17;;
7263;SDS011;3673;52.480;13.348;2023-07-24T03:40:59;2.70;;;2.13;;
7263;SDS011;3673;52.480;13.348;2023-07-24T03:43:27;4.10;;;2.00;;
7263;SDS011;3673;52.480;13.348;2023-07-24T03:45:54;6.07;;;2.50;;
7263;SDS011;3673;52.480;13.348;2023-07-24T03:48:21;3.20;;;2.20;;
7263;SDS011;3673;52.480;13.348;2023-07-24T03:50:49;4.03;;;2.40;;
7263;SDS011;3673;52.480;13.348;2023-07-24T03:53:16;2.75;;;1.90;;
7263;SDS011;3673;52.480;13.348;2023-07-24T03:55:43;3.50;;;2.50;;
7263;SDS011;3673;52.480;13.348;2023-07-24T03:58:10;4.10;;;3.38;;
7263;SDS011;3673;52.480;13.348;2023-07-24T04:00:38;3.38;;;2.42;;
7263;SDS011;3673;52.480;13.348;2023-07-24T04:03:05;2.75;;;2.22;;
7263;SDS011;3673;52.480;13.348;2023-07-24T04:05:33;4.38;;;2.53;;
7263;SDS011;3673;52.480;13.348;2023-07-24T04:08:01;3.40;;;2.15;;
7263;SDS011;3673;52.480;13.348;2023-07-24T04:10:28;3.05;;;1.75;;
7263;SDS011;3673;52.480;13.348;2023-07-24T04:12:56;4.07;;;2.20;;
7263;SDS011;3673;52.480;13.348;2023-07-24T04:15:23;3.40;;;2.20;;
7263;SDS011;3673;52.480;13.348;2023-07-24T04:17:51;3.13;;;2.20;;
7263;SDS011;3673;52.480;13.348;2023-07-24T04:20:17;5.78;;;1.95;;
7263;SDS011;3673;52.480;13.348;2023-07-24T04:22:44;2.45;;;2.00;;
7263;SDS011;3673;52.480;13.348;2023-07-24T04:25:11;3.70;;;2.85;;
7263;SDS011;3673;52.480;13.348;2023-07-24T04:27:38;2.55;;;2.35;;
7263;SDS011;3673;52.480;13.348;2023-07-24T04:30:05;3.20;;;2.10;;
7263;SDS011;3673;52.480;13.348;2023-07-24T04:32:33;2.75;;;2.08;;
7263;SDS011;3673;52.480;13.348;2023-07-24T04:35:01;3.75;;;2.15;;
7263;SDS011;3673;52.480;13.348;2023-07-24T04:37:28;2.25;;;2.00;;
7263;SDS011;3673;52.480;13.348;2023-07-24T04:39:55;3.47;;;2.42;;
7263;SDS011;3673;52.480;13.348;2023-07-24T04:42:22;3.05;;;1.92;;
7263;SDS011;3673;52.480;13.348;2023-07-24T04:44:49;2.70;;;1.88;;
7263;SDS011;3673;52.480;13.348;2023-07-24T04:47:16;3.05;;;1.80;;
7263;SDS011;3673;52.480;13.348;2023-07-24T04:49:43;2.65;;;2.08;;
7263;SDS011;3673;52.480;13.348;2023-07-24T04:52:11;1.77;;;1.52;;
7263;SDS011;3673;52.480;13.348;2023-07-24T04:54:38;3.97;;;2.22;;
7263;SDS011;3673;52.480;13.348;2023-07-24T04:57:05;4.72;;;2.38;;
7263;SDS011;3673;52.480;13.348;2023-07-24T04:59:32;3.75;;;2.50;;
7263;SDS011;3673;52.480;13.348;2023-07-24T05:01:58;2.30;;;1.80;;
7263;SDS011;3673;52.480;13.348;2023-07-24T05:04:25;2.88;;;2.03;;
7263;SDS011;3673;52.480;13.348;2023-07-24T05:06:52;2.92;;;1.90;;
7263;SDS011;3673;52.480;13.348;2023-07-24T05:09:20;2.78;;;1.67;;
7263;SDS011;3673;52.480;13.348;2023-07-24T05:11:46;9.93;;;6.38;;
7263;SDS011;3673;52.480;13.348;2023-07-24T05:14:13;7.80;;;5.15;;
7263;SDS011;3673;52.480;13.348;2023-07-24T05:16:40;2.78;;;2.20;;
7263;SDS011;3673;52.480;13.348;2023-07-24T05:19:07;2.20;;;1.40;;
7263;SDS011;3673;52.480;13.348;2023-07-24T05:21:33;2.58;;;1.52;;
7263;SDS011;3673;52.480;13.348;2023-07-24T05:24:00;1.80;;;1.70;;
7263;SDS011;3673;52.480;13.348;2023-07-24T05:26:28;2.50;;;1.70;;
7263;SDS011;3673;52.480;13.348;2023-07-24T05:28:55;6.20;;;2.63;;
7263;SDS011;3673;52.480;13.348;2023-07-24T05:31:22;2.17;;;1.60;;
7263;SDS011;3673;52.480;13.348;2023-07-24T05:33:49;2.17;;;1.63;;
7263;SDS011;3673;52.480;13.348;2023-07-24T05:36:15;2.58;;;1.50;;
7263;SDS011;3673;52.480;13.348;2023-07-24T05:38:42;1.73;;;1.27;;
7263;SDS011;3673;52.480;13.348;2023-07-24T05:41:09;2.20;;;1.55;;
7263;SDS011;3673;52.480;13.348;2023-07-24T05:43:37;3.90;;;1.55;;
7263;SDS011;3673;52.480;13.348;2023-07-24T05:46:03;3.75;;;1.98;;
7263;SDS011;3673;52.480;13.348;2023-07-24T05:48:30;4.22;;;2.80;;
7263;SDS011;3673;52.480;13.348;2023-07-24T05:50:57;1.95;;;1.75;;
7263;SDS011;3673;52.480;13.348;2023-07-24T05:53:24;2.08;;;1.20;;
7263;SDS011;3673;52.480;13.348;2023-07-24T05:55:56;2.17;;;1.40;;
7263;SDS011;3673;52.480;13.348;2023-07-24T05:58:24;3.33;;;1.60;;
7263;SDS011;3673;52.480;13.348;2023-07-24T06:00:52;2.78;;;1.40;;
7263;SDS011;3673;52.480;13.348;2023-07-24T06:03:20;1.38;;;1.27;;
7263;SDS011;3673;52.480;13.348;2023-07-24T06:05:50;2.53;;;1.45;;
7263;SDS011;3673;52.480;13.348;2023-07-24T06:08:18;2.30;;;1.40;;
7263;SDS011;3673;52.480;13.348;2023-07-24T06:10:45;2.20;;;1.48;;
7263;SDS011;3673;52.480;13.348;2023-07-24T06:13:13;2.53;;;1.63;;
7263;SDS011;3673;52.480;13.348;2023-07-24T06:15:40;2.45;;;1.95;;
7263;SDS011;3673;52.480;13.348;2023-07-24T06:18:08;2.08;;;1.65;;
7263;SDS011;3673;52.480;13.348;2023-07-24T06:20:36;2.50;;;2.00;;
7263;SDS011;3673;52.480;13.348;2023-07-24T06:23:02;3.75;;;1.60;;
7263;SDS011;3673;52.480;13.348;2023-07-24T06:25:29;3.55;;;1.90;;
7263;SDS011;3673;52.480;13.348;2023-07-24T06:27:56;2.83;;;2.10;;
7263;SDS011;3673;52.480;13.348;2023-07-24T06:30:23;2.08;;;1.77;;
7263;SDS011;3673;52.480;13.348;2023-07-24T06:32:50;4.53;;;2.10;;
7263;SDS011;3673;52.480;13.348;2023-07-24T06:35:18;4.90;;;2.80;;
7263;SDS011;3673;52.480;13.348;2023-07-24T06:37:45;3.17;;;2.08;;
7263;SDS011;3673;52.480;13.348;2023-07-24T06:40:11;4.32;;;2.05;;
7263;SDS011;3673;52.480;13.348;2023-07-24T06:42:38;2.65;;;2.22;;
7263;SDS011;3673;52.480;13.348;2023-07-24T06:45:06;4.88;;;2.00;;
7263;SDS011;3673;52.480;13.348;2023-07-24T06:47:34;3.40;;;2.20;;
7263;SDS011;3673;52.480;13.348;2023-07-24T06:50:00;4.47;;;2.25;;
7263;SDS011;3673;52.480;13.348;2023-07-24T06:52:29;3.30;;;2.25;;
7263;SDS011;3673;52.480;13.348;2023-07-24T06:54:55;5.03;;;2.10;;
7263;SDS011;3673;52.480;13.348;2023-07-24T06:57:23;3.28;;;2.38;;
7263;SDS011;3673;52.480;13.348;2023-07-24T06:59:50;2.83;;;2.33;;
7263;SDS011;3673;52.480;13.348;2023-07-24T07:02:17;2.28;;;2.05;;
7263;SDS011;3673;52.480;13.348;2023-07-24T07:04:43;5.82;;;2.47;;
7263;SDS011;3673;52.480;13.348;2023-07-24T07:07:11;4.72;;;1.90;;
7263;SDS011;3673;52.480;13.348;2023-07-24T07:09:39;2.67;;;2.35;;
7263;SDS011;3673;52.480;13.348;2023-07-24T07:12:06;2.40;;;2.20;;
7263;SDS011;3673;52.480;13.348;2023-07-24T07:14:33;2.50;;;2.30;;
7263;SDS011;3673;52.480;13.348;2023-07-24T07:17:00;3.80;;;2.13;;
7263;SDS011;3673;52.480;13.348;2023-07-24T07:19:27;3.47;;;2.70;;
7263;SDS011;3673;52.480;13.348;2023-07-24T07:21:54;3.60;;;2.80;;
7263;SDS011;3673;52.480;13.348;2023-07-24T07:24:21;5.47;;;2.47;;
7263;SDS011;3673;52.480;13.348;2023-07-24T07:26:49;2.55;;;2.05;;
7263;SDS011;3673;52.480;13.348;2023-07-24T07:29:15;2.97;;;2.60;;
7263;SDS011;3673;52.480;13.348;2023-07-24T07:31:42;3.10;;;2.38;;
7263;SDS011;3673;52.480;13.348;2023-07-24T07:34:09;2.50;;;2.30;;
7263;SDS011;3673;52.480;13.348;2023-07-24T07:36:36;3.50;;;2.63;;
7263;SDS011;3673;52.480;13.348;2023-07-24T07:39:02;3.20;;;2.20;;
7263;SDS011;3673;52.480;13.348;2023-07-24T07:41:29;6.03;;;2.03;;
7263;SDS011;3673;52.480;13.348;2023-07-24T07:43:57;2.90;;;2.40;;
7263;SDS011;3673;52.480;13.348;2023-07-24T07:46:24;2.10;;;1.90;;
7263;SDS011;3673;52.480;13.348;2023-07-24T07:48:51;2.53;;;1.95;;
7263;SDS011;3673;52.480;13.348;2023-07-24T07:51:17;2.63;;;1.90;;
7263;SDS011;3673;52.480;13.348;2023-07-24T07:53:44;2.85;;;2.15;;
7263;SDS011;3673;52.480;13.348;2023-07-24T07:56:11;3.08;;;2.25;;
7263;SDS011;3673;52.480;13.348;2023-07-24T07:58:38;3.45;;;2.10;;
7263;SDS011;3673;52.480;13.348;2023-07-24T08:01:06;3.90;;;2.58;;
7263;SDS011;3673;52.480;13.348;2023-07-24T08:03:33;3.10;;;2.80;;
7263;SDS011;3673;52.480;13.348;2023-07-24T08:06:00;4.03;;;2.50;;
7263;SDS011;3673;52.480;13.348;2023-07-24T08:08:27;2.80;;;2.30;;
7263;SDS011;3673;52.480;13.348;2023-07-24T08:10:54;4.28;;;2.13;;
7263;SDS011;3673;52.480;13.348;2023-07-24T08:13:21;2.67;;;2.47;;
7263;SDS011;3673;52.480;13.348;2023-07-24T08:15:48;4.50;;;2.10;;
7263;SDS011;3673;52.480;13.348;2023-07-24T08:18:17;2.67;;;1.80;;
7263;SDS011;3673;52.480;13.348;2023-07-24T08:20:43;7.10;;;2.35;;
7263;SDS011;3673;52.480;13.348;2023-07-24T08:23:10;2.67;;;1.83;;
7263;SDS011;3673;52.480;13.348;2023-07-24T08:25:37;2.55;;;1.92;;
7263;SDS011;3673;52.480;13.348;2023-07-24T08:28:04;2.88;;;1.85;;
7263;SDS011;3673;52.480;13.348;2023-07-24T08:30:30;2.30;;;2.03;;
7263;SDS011;3673;52.480;13.348;2023-07-24T08:32:57;2.42;;;2.05;;
7263;SDS011;3673;52.480;13.348;2023-07-24T08:35:26;2.45;;;2.00;;
7263;SDS011;3673;52.480;13.348;2023-07-24T08:37:53;3.55;;;1.90;;
7263;SDS011;3673;52.480;13.348;2023-07-24T08:40:19;2.53;;;1.90;;
7263;SDS011;3673;52.480;13.348;2023-07-24T08:42:47;2.67;;;2.00;;
7263;SDS011;3673;52.480;13.348;2023-07-24T08:45:16;2.65;;;2.28;;
7263;SDS011;3673;52.480;13.348;2023-07-24T08:47:44;3.65;;;2.78;;
7263;SDS011;3673;52.480;13.348;2023-07-24T08:50:11;3.25;;;2.00;;
7263;SDS011;3673;52.480;13.348;2023-07-24T08:52:41;3.53;;;2.40;;
7263;SDS011;3673;52.480;13.348;2023-07-24T08:55:11;2.25;;;1.80;;
7263;SDS011;3673;52.480;13.348;2023-07-24T08:57:38;4.10;;;2.00;;
7263;SDS011;3673;52.480;13.348;2023-07-24T09:00:05;2.30;;;2.10;;
7263;SDS011;3673;52.480;13.348;2023-07-24T09:02:33;2.20;;;2.00;;
7263;SDS011;3673;52.480;13.348;2023-07-24T09:05:01;4.18;;;2.25;;
7263;SDS011;3673;52.480;13.348;2023-07-24T09:07:28;4.70;;;2.25;;
7263;SDS011;3673;52.480;13.348;2023-07-24T09:09:57;3.83;;;2.60;;
7263;SDS011;3673;52.480;13.348;2023-07-24T09:12:24;2.42;;;1.70;;
7263;SDS011;3673;52.480;13.348;2023-07-24T09:15:00;2.00;;;1.80;;
7263;SDS011;3673;52.480;13.348;2023-07-24T09:17:28;3.53;;;1.83;;
7263;SDS011;3673;52.480;13.348;2023-07-24T09:19:55;2.78;;;1.80;;
7263;SDS011;3673;52.480;13.348;2023-07-24T09:22:23;2.38;;;1.80;;
7263;SDS011;3673;52.480;13.348;2023-07-24T09:24:51;3.80;;;1.92;;
7263;SDS011;3673;52.480;13.348;2023-07-24T09:27:24;2.42;;;2.10;;
7263;SDS011;3673;52.480;13.348;2023-07-24T09:29:52;2.75;;;1.85;;
7263;SDS011;3673;52.480;13.348;2023-07-24T09:32:19;2.35;;;1.90;;
7263;SDS011;3673;52.480;13.348;2023-07-24T09:34:47;4.10;;;2.35;;
7263;SDS011;3673;52.480;13.348;2023-07-24T09:37:25;3.30;;;2.10;;
7263;SDS011;3673;52.480;13.348;2023-07-24T09:39:53;5.35;;;2.63;;
7263;SDS011;3673;52.480;13.348;2023-07-24T09:42:34;3.75;;;2.17;;
7263;SDS011;3673;52.480;13.348;2023-07-24T09:45:02;3.15;;;2.30;;
7263;SDS011;3673;52.480;13.348;2023-07-24T09:47:30;4.32;;;2.15;;
7263;SDS011;3673;52.480;13.348;2023-07-24T09:49:57;2.60;;;2.28;;
7263;SDS011;3673;52.480;13.348;2023-07-24T09:52:27;5.78;;;2.50;;
7263;SDS011;3673;52.480;13.348;2023-07-24T09:54:59;9.43;;;2.50;;
7263;SDS011;3673;52.480;13.348;2023-07-24T09:57:31;3.75;;;2.40;;
7263;SDS011;3673;52.480;13.348;2023-07-24T10:00:00;2.90;;;2.15;;
7263;SDS011;3673;52.480;13.348;2023-07-24T10:02:28;5.32;;;2.55;;
7263;SDS011;3673;52.480;13.348;2023-07-24T10:04:55;2.72;;;2.15;;
7263;SDS011;3673;52.480;13.348;2023-07-24T10:07:22;16.88;;;4.35;;
7263;SDS011;3673;52.480;13.348;2023-07-24T10:09:50;11.00;;;3.30;;
7263;SDS011;3673;52.480;13.348;2023-07-24T10:12:17;6.00;;;2.60;;
7263;SDS011;3673;52.480;13.348;2023-07-24T10:14:46;7.90;;;3.08;;
7263;SDS011;3673;52.480;13.348;2023-07-24T10:17:14;2.75;;;2.08;;
7263;SDS011;3673;52.480;13.348;2023-07-24T10:19:50;3.50;;;2.80;;
7263;SDS011;3673;52.480;13.348;2023-07-24T10:22:16;4.85;;;2.25;;
7263;SDS011;3673;52.480;13.348;2023-07-24T10:24:44;4.90;;;2.47;;
7263;SDS011;3673;52.480;13.348;2023-07-24T10:27:11;13.18;;;4.63;;
7263;SDS011;3673;52.480;13.348;2023-07-24T10:29:38;5.47;;;3.17;;
7263;SDS011;3673;52.480;13.348;2023-07-24T10:32:17;7.50;;;4.20;;
7263;SDS011;3673;52.480;13.348;2023-07-24T10:34:44;7.72;;;3.60;;
7263;SDS011;3673;52.480;13.348;2023-07-24T10:37:11;4.97;;;3.25;;
7263;SDS011;3673;52.480;13.348;2023-07-24T10:39:38;4.20;;;3.15;;
7263;SDS011;3673;52.480;13.348;2023-07-24T10:42:07;8.85;;;3.75;;
7263;SDS011;3673;52.480;13.348;2023-07-24T10:44:35;8.32;;;4.07;;
7263;SDS011;3673;52.480;13.348;2023-07-24T10:47:03;3.70;;;3.28;;
7263;SDS011;3673;52.480;13.348;2023-07-24T10:49:31;12.00;;;5.03;;
7263;SDS011;3673;52.480;13.348;2023-07-24T10:51:59;5.47;;;3.78;;
7263;SDS011;3673;52.480;13.348;2023-07-24T10:54:26;16.70;;;5.90;;
7263;SDS011;3673;52.480;13.348;2023-07-24T10:56:59;4.00;;;3.60;;
7263;SDS011;3673;52.480;13.348;2023-07-24T10:59:36;5.53;;;4.07;;
7263;SDS011;3673;52.480;13.348;2023-07-24T11:02:06;5.82;;;3.85;;
7263;SDS011;3673;52.480;13.348;2023-07-24T11:04:36;8.18;;;3.95;;
7263;SDS011;3673;52.480;13.348;2023-07-24T11:07:03;5.55;;;3.88;;
7263;SDS011;3673;52.480;13.348;2023-07-24T11:09:36;5.35;;;4.60;;
7263;SDS011;3673;52.480;13.348;2023-07-24T11:12:09;6.55;;;3.63;;
7263;SDS011;3673;52.480;13.348;2023-07-24T11:14:45;4.75;;;3.90;;
7263;SDS011;3673;52.480;13.348;2023-07-24T11:17:16;7.45;;;3.92;;
7263;SDS011;3673;52.480;13.348;2023-07-24T11:19:48;14.98;;;7.32;;
7263;SDS011;3673;52.480;13.348;2023-07-24T11:25:37;5.18;;;4.35;;
7263;SDS011;3673;52.480;13.348;2023-07-24T11:28:05;6.75;;;4.13;;
7263;SDS011;3673;52.480;13.348;2023-07-24T11:34:08;9.65;;;5.32;;
7263;SDS011;3673;52.480;13.348;2023-07-24T11:36:37;10.82;;;5.75;;
7263;SDS011;3673;52.480;13.348;2023-07-24T11:39:04;6.47;;;4.63;;
7263;SDS011;3673;52.480;13.348;2023-07-24T11:41:30;5.80;;;4.35;;
7263;SDS011;3673;52.480;13.348;2023-07-24T11:43:57;8.63;;;4.55;;
7263;SDS011;3673;52.480;13.348;2023-07-24T11:46:24;16.23;;;5.45;;
7263;SDS011;3673;52.480;13.348;2023-07-24T11:48:52;7.90;;;4.43;;
7263;SDS011;3673;52.480;13.348;2023-07-24T11:51:21;5.18;;;4.13;;
7263;SDS011;3673;52.480;13.348;2023-07-24T11:53:50;9.82;;;5.63;;
7263;SDS011;3673;52.480;13.348;2023-07-24T11:56:18;15.27;;;5.20;;
7263;SDS011;3673;52.480;13.348;2023-07-24T11:58:46;7.50;;;4.47;;
7263;SDS011;3673;52.480;13.348;2023-07-24T12:01:13;8.77;;;4.75;;
7263;SDS011;3673;52.480;13.348;2023-07-24T12:03:40;8.55;;;4.78;;
7263;SDS011;3673;52.480;13.348;2023-07-24T12:06:13;5.78;;;5.00;;
7263;SDS011;3673;52.480;13.348;2023-07-24T12:08:41;7.10;;;4.47;;
7263;SDS011;3673;52.480;13.348;2023-07-24T12:11:16;5.88;;;4.15;;
7263;SDS011;3673;52.480;13.348;2023-07-24T12:13:44;7.88;;;4.10;;
7263;SDS011;3673;52.480;13.348;2023-07-24T12:16:10;7.78;;;4.63;;
7263;SDS011;3673;52.480;13.348;2023-07-24T12:18:37;5.45;;;4.80;;
7263;SDS011;3673;52.480;13.348;2023-07-24T12:21:04;7.38;;;4.32;;
7263;SDS011;3673;52.480;13.348;2023-07-24T12:23:31;11.45;;;3.88;;
7263;SDS011;3673;52.480;13.348;2023-07-24T12:25:57;4.53;;;3.83;;
7263;SDS011;3673;52.480;13.348;2023-07-24T12:28:25;5.63;;;4.22;;
7263;SDS011;3673;52.480;13.348;2023-07-24T12:30:52;6.55;;;4.45;;
7263;SDS011;3673;52.480;13.348;2023-07-24T12:33:19;5.80;;;4.05;;
7263;SDS011;3673;52.480;13.348;2023-07-24T12:35:48;7.13;;;5.13;;
7263;SDS011;3673;52.480;13.348;2023-07-24T12:38:15;5.40;;;3.65;;
7263;SDS011;3673;52.480;13.348;2023-07-24T12:40:43;5.20;;;3.97;;
7263;SDS011;3673;52.480;13.348;2023-07-24T12:43:14;9.32;;;5.25;;
7263;SDS011;3673;52.480;13.348;2023-07-24T12:45:42;5.57;;;4.00;;
7263;SDS011;3673;52.480;13.348;2023-07-24T12:48:09;7.57;;;4.95;;
7263;SDS011;3673;52.480;13.348;2023-07-24T12:50:36;4.65;;;3.63;;
7263;SDS011;3673;52.480;13.348;2023-07-24T12:53:03;6.25;;;3.90;;
7263;SDS011;3673;52.480;13.348;2023-07-24T12:55:30;9.95;;;4.20;;
7263;SDS011;3673;52.480;13.348;2023-07-24T12:58:33;6.35;;;3.50;;
7263;SDS011;3673;52.480;13.348;2023-07-24T13:01:01;6.50;;;4.07;;
7263;SDS011;3673;52.480;13.348;2023-07-24T13:03:28;5.68;;;3.10;;
7263;SDS011;3673;52.480;13.348;2023-07-24T13:05:54;4.15;;;3.33;;
7263;SDS011;3673;52.480;13.348;2023-07-24T13:08:21;4.25;;;3.40;;
7263;SDS011;3673;52.480;13.348;2023-07-24T13:10:48;8.25;;;3.47;;
7263;SDS011;3673;52.480;13.348;2023-07-24T13:13:15;9.90;;;3.90;;
7263;SDS011;3673;52.480;13.348;2023-07-24T13:15:42;4.22;;;3.42;;
7263;SDS011;3673;52.480;13.348;2023-07-24T13:18:10;4.30;;;3.17;;
7263;SDS011;3673;52.480;13.348;2023-07-24T13:20:38;4.82;;;3.30;;
7263;SDS011;3673;52.480;13.348;2023-07-24T13:23:05;4.63;;;3.75;;
7263;SDS011;3673;52.480;13.348;2023-07-24T13:25:32;5.68;;;3.75;;
7263;SDS011;3673;52.480;13.348;2023-07-24T13:27:59;4.28;;;3.28;;
7263;SDS011;3673;52.480;13.348;2023-07-24T13:30:26;5.22;;;3.70;;
7263;SDS011;3673;52.480;13.348;2023-07-24T13:32:52;4.50;;;3.40;;
7263;SDS011;3673;52.480;13.348;2023-07-24T13:35:20;8.65;;;3.58;;
7263;SDS011;3673;52.480;13.348;2023-07-24T13:37:47;6.88;;;3.40;;
7263;SDS011;3673;52.480;13.348;2023-07-24T13:40:14;4.57;;;3.35;;
7263;SDS011;3673;52.480;13.348;2023-07-24T13:42:41;3.83;;;3.03;;
7263;SDS011;3673;52.480;13.348;2023-07-24T13:45:08;3.67;;;3.10;;
7263;SDS011;3673;52.480;13.348;2023-07-24T13:47:35;5.53;;;3.78;;
7263;SDS011;3673;52.480;13.348;2023-07-24T13:50:02;5.70;;;3.38;;
7263;SDS011;3673;52.480;13.348;2023-07-24T13:52:31;4.45;;;3.17;;
7263;SDS011;3673;52.480;13.348;2023-07-24T13:54:57;4.03;;;2.70;;
7263;SDS011;3673;52.480;13.348;2023-07-24T13:57:25;8.98;;;5.75;;
7263;SDS011;3673;52.480;13.348;2023-07-24T13:59:52;31.92;;;16.58;;
7263;SDS011;3673;52.480;13.348;2023-07-24T14:02:19;7.57;;;5.88;;
7263;SDS011;3673;52.480;13.348;2023-07-24T14:04:45;14.18;;;8.88;;
7263;SDS011;3673;52.480;13.348;2023-07-24T14:07:12;10.88;;;8.10;;
7263;SDS011;3673;52.480;13.348;2023-07-24T14:09:40;18.02;;;11.50;;
7263;SDS011;3673;52.480;13.348;2023-07-24T14:12:07;8.48;;;6.47;;
7263;SDS011;3673;52.480;13.348;2023-07-24T14:14:34;11.85;;;6.28;;
7263;SDS011;3673;52.480;13.348;2023-07-24T14:17:01;8.20;;;4.93;;
7263;SDS011;3673;52.480;13.348;2023-07-24T14:19:27;9.73;;;6.38;;
7263;SDS011;3673;52.480;13.348;2023-07-24T14:21:54;7.57;;;5.28;;
7263;SDS011;3673;52.480;13.348;2023-07-24T14:24:21;12.25;;;7.03;;
7263;SDS011;3673;52.480;13.348;2023-07-24T14:26:49;10.00;;;5.72;;
7263;SDS011;3673;52.480;13.348;2023-07-24T14:29:16;6.03;;;4.80;;
7263;SDS011;3673;52.480;13.348;2023-07-24T14:31:43;9.15;;;3.92;;
7263;SDS011;3673;52.480;13.348;2023-07-24T14:34:10;4.97;;;3.88;;
7263;SDS011;3673;52.480;13.348;2023-07-24T14:36:37;4.25;;;3.30;;
7263;SDS011;3673;52.480;13.348;2023-07-24T14:39:04;5.88;;;4.10;;
7263;SDS011;3673;52.480;13.348;2023-07-24T14:41:31;6.80;;;3.30;;
7263;SDS011;3673;52.480;13.348;2023-07-24T14:43:59;7.40;;;3.65;;
7263;SDS011;3673;52.480;13.348;2023-07-24T14:46:26;5.15;;;3.20;;
7263;SDS011;3673;52.480;13.348;2023-07-24T14:48:53;4.55;;;3.40;;
7263;SDS011;3673;52.480;13.348;2023-07-24T14:51:19;7.00;;;3.38;;
7263;SDS011;3673;52.480;13.348;2023-07-24T14:53:46;6.38;;;5.38;;
7263;SDS011;3673;52.480;13.348;2023-07-24T14:56:13;4.15;;;3.35;;
7263;SDS011;3673;52.480;13.348;2023-07-24T14:58:40;4.95;;;3.90;;
7263;SDS011;3673;52.480;13.348;2023-07-24T15:01:11;5.00;;;4.50;;
7263;SDS011;3673;52.480;13.348;2023-07-24T15:03:38;6.43;;;4.35;;
7263;SDS011;3673;52.480;13.348;2023-07-24T15:06:05;4.28;;;3.30;;
7263;SDS011;3673;52.480;13.348;2023-07-24T15:08:32;4.97;;;3.53;;
7263;SDS011;3673;52.480;13.348;2023-07-24T15:11:00;6.40;;;3.88;;